Terminal Aerodrome Forecast
Issued by NWS Cleveland, OH

Home | Current Version | Previous Version | Graphics & Text | Print | Product List | Glossary On
Versions: 1 2 3 4 5 6 7 8 9 10 11 12 13 14 15 16 17 18
435
FTUS41 KCLE 180520
TAFERI
TAF
KERI 180520Z 1806/1906 04012KT P6SM OVC250
     FM181400 07015G25KT P6SM BKN120
     FM182200 08020G30KT P6SM OVC100
     FM190200 09015G25KT P6SM OVC035
     FM190400 10015G25KT 5SM -SHRA BR OVC015=

USA.gov is the U.S. government's official web portal to all federal, state and local government web resources and services.